createdAt,value
2022-08-19T00:01:59.032Z,22.00
2022-08-19T00:04:34.020Z,21.94
2022-08-19T00:07:01.820Z,21.89
2022-08-19T00:09:29.861Z,21.83
2022-08-19T00:11:58.816Z,21.86
2022-08-19T00:14:31.229Z,21.79
2022-08-19T00:16:58.952Z,21.71
2022-08-19T00:19:26.588Z,21.79
2022-08-19T00:21:54.442Z,21.67
2022-08-19T00:24:22.122Z,21.86
2022-08-19T00:26:49.832Z,21.67
2022-08-19T00:29:19.846Z,21.76
2022-08-19T00:31:47.997Z,21.77
2022-08-19T00:34:18.319Z,22.03
2022-08-19T00:36:46.057Z,22.15
2022-08-19T00:39:16.579Z,22.17
2022-08-19T00:41:48.154Z,22.19
2022-08-19T00:44:36.570Z,22.18
2022-08-19T00:47:05.183Z,22.11
2022-08-19T00:49:41.834Z,22.12
2022-08-19T00:52:14.071Z,22.21
2022-08-19T00:54:42.964Z,22.12
2022-08-19T00:57:14.833Z,21.99
2022-08-19T00:59:56.123Z,21.83
2022-08-19T01:02:31.814Z,21.78
2022-08-19T01:05:02.128Z,21.47
2022-08-19T01:07:35.704Z,21.45
2022-08-19T01:10:09.052Z,21.34
2022-08-19T01:12:37.440Z,21.45
2022-08-19T01:15:08.225Z,21.35
2022-08-19T01:17:41.634Z,21.27
2022-08-19T01:20:17.805Z,21.34
2022-08-19T01:22:49.972Z,21.17
2022-08-19T01:25:22.050Z,21.40
2022-08-19T01:27:53.792Z,21.20
2022-08-19T01:30:25.920Z,21.24
2022-08-19T01:32:55.218Z,21.35
2022-08-19T01:35:26.553Z,21.00
2022-08-19T01:37:57.925Z,20.91
2022-08-19T01:40:30.542Z,21.00
2022-08-19T01:42:58.664Z,20.96
2022-08-19T01:45:28.739Z,21.12
2022-08-19T01:48:01.952Z,21.13
2022-08-19T01:50:31.951Z,21.19
2022-08-19T01:53:06.192Z,20.88
2022-08-19T01:55:40.493Z,20.88
2022-08-19T01:58:14.974Z,21.00
2022-08-19T02:00:43.490Z,20.92
2022-08-19T02:03:12.455Z,20.96
2022-08-19T02:05:41.335Z,20.94
2022-08-19T02:08:09.564Z,20.80
2022-08-19T02:10:41.707Z,20.73
2022-08-19T02:13:09.532Z,20.74
2022-08-19T02:15:38.960Z,20.88
2022-08-19T02:18:09.549Z,20.89
2022-08-19T02:20:38.859Z,21.06
2022-08-19T02:23:13.480Z,20.86
2022-08-19T02:25:42.643Z,20.75
2022-08-19T02:28:10.136Z,20.91
2022-08-19T02:30:37.767Z,20.75
2022-08-19T02:33:06.263Z,20.77
2022-08-19T02:35:33.830Z,20.92
2022-08-19T02:38:22.157Z,20.45
2022-08-19T02:40:52.893Z,20.39
2022-08-19T02:43:21.829Z,20.52
2022-08-19T02:45:50.893Z,20.67
2022-08-19T02:48:22.544Z,20.34
2022-08-19T02:50:56.250Z,20.58
2022-08-19T02:53:27.314Z,20.53
2022-08-19T02:55:55.461Z,20.66
2022-08-19T02:58:26.821Z,20.79
2022-08-19T03:00:56.306Z,20.73
2022-08-19T03:03:24.603Z,20.60
2022-08-19T03:05:56.829Z,20.58
2022-08-19T03:08:26.620Z,20.82
2022-08-19T03:10:54.989Z,20.53
2022-08-19T03:13:25.100Z,19.98
2022-08-19T03:15:52.652Z,20.03
2022-08-19T03:18:20.440Z,20.13
2022-08-19T03:20:53.880Z,20.27
2022-08-19T03:23:22.616Z,19.95
2022-08-19T03:25:58.376Z,19.35
2022-08-19T03:28:33.721Z,19.52
2022-08-19T03:31:05.193Z,19.76
2022-08-19T03:33:55.392Z,19.85
2022-08-19T03:36:25.855Z,20.05
2022-08-19T03:39:00.169Z,20.11
2022-08-19T03:41:44.562Z,20.35
2022-08-19T03:44:19.389Z,20.47
2022-08-19T03:46:58.273Z,20.48
2022-08-19T03:49:33.717Z,20.59
2022-08-19T03:52:01.651Z,20.80
2022-08-19T03:54:29.785Z,20.87
2022-08-19T03:56:58.506Z,20.87
2022-08-19T03:59:36.596Z,20.90
2022-08-19T04:02:10.190Z,20.95
2022-08-19T04:04:44.174Z,20.91
2022-08-19T04:07:16.826Z,20.94
2022-08-19T04:09:44.530Z,21.12
2022-08-19T04:12:12.293Z,20.80
2022-08-19T04:14:46.177Z,20.78
2022-08-19T04:17:15.093Z,20.69
2022-08-19T04:19:43.969Z,20.89
2022-08-19T04:22:12.666Z,21.05
2022-08-19T04:24:40.301Z,21.05
2022-08-19T04:27:07.896Z,20.98
2022-08-19T04:29:35.538Z,20.82
2022-08-19T04:32:09.193Z,20.81
2022-08-19T04:35:01.192Z,20.74
2022-08-19T04:37:35.339Z,20.84
2022-08-19T04:40:25.633Z,20.79
2022-08-19T04:42:54.691Z,20.74
2022-08-19T04:45:22.839Z,20.84
2022-08-19T04:47:58.729Z,20.89
2022-08-19T04:50:42.892Z,21.19
2022-08-19T04:53:11.257Z,21.15
2022-08-19T04:55:44.097Z,21.08
2022-08-19T04:58:11.663Z,21.48
2022-08-19T05:00:41.855Z,21.67
2022-08-19T05:03:09.663Z,21.78
2022-08-19T05:05:45.554Z,21.66
2022-08-19T05:08:15.207Z,21.90
2022-08-19T05:10:43.229Z,21.70
2022-08-19T05:13:14.231Z,21.55
2022-08-19T05:15:44.446Z,21.77
2022-08-19T05:18:30.750Z,21.77
2022-08-19T05:21:17.049Z,21.59
2022-08-19T05:23:45.440Z,21.54
2022-08-19T05:26:12.999Z,21.62
2022-08-19T05:28:40.597Z,21.57
2022-08-19T05:31:08.179Z,21.57
2022-08-19T05:33:38.549Z,21.70
2022-08-19T05:36:08.344Z,21.60
2022-08-19T05:38:36.824Z,21.63
2022-08-19T05:41:11.555Z,21.48
2022-08-19T05:43:39.358Z,21.50
2022-08-19T05:46:07.607Z,21.54
2022-08-19T05:48:36.343Z,21.39
2022-08-19T05:51:07.962Z,21.44
2022-08-19T05:53:36.578Z,21.20
2022-08-19T05:56:15.720Z,21.27
2022-08-19T05:58:45.895Z,21.29
2022-08-19T06:01:17.387Z,21.31
2022-08-19T06:03:46.041Z,21.35
2022-08-19T06:06:16.013Z,21.10
2022-08-19T06:08:46.241Z,21.17
2022-08-19T06:11:34.873Z,21.01
2022-08-19T06:14:09.123Z,20.91
2022-08-19T06:16:45.483Z,20.83
2022-08-19T06:19:18.211Z,20.86
2022-08-19T06:21:48.316Z,20.97
2022-08-19T06:24:19.149Z,21.11
2022-08-19T06:29:23.752Z,20.89
2022-08-19T06:31:56.904Z,20.91
2022-08-19T06:34:26.056Z,21.07
2022-08-19T06:36:53.794Z,21.14
2022-08-19T06:39:28.954Z,20.86
2022-08-19T06:42:12.776Z,21.16
2022-08-19T06:44:48.096Z,21.29
2022-08-19T06:47:23.777Z,21.22
2022-08-19T06:50:05.531Z,21.27
2022-08-19T06:52:36.765Z,20.83
2022-08-19T06:55:07.142Z,20.93
2022-08-19T06:57:35.200Z,20.80
2022-08-19T07:00:04.834Z,21.01
2022-08-19T07:02:32.485Z,20.82
2022-08-19T07:05:03.584Z,20.99
2022-08-19T07:07:35.093Z,20.88
2022-08-19T07:10:04.985Z,20.88
2022-08-19T07:12:35.887Z,20.84
2022-08-19T07:15:06.815Z,20.90
2022-08-19T07:17:35.831Z,20.77
2022-08-19T07:20:05.041Z,20.53
2022-08-19T07:22:33.723Z,20.31
2022-08-19T07:25:06.438Z,20.23
2022-08-19T07:27:34.986Z,20.26
2022-08-19T07:30:03.693Z,20.43
2022-08-19T07:32:32.597Z,20.58
2022-08-19T07:35:01.731Z,20.52
2022-08-19T07:37:33.011Z,20.48
2022-08-19T07:40:02.413Z,20.55
2022-08-19T07:42:30.973Z,20.39
2022-08-19T07:44:59.741Z,20.36
2022-08-19T07:47:58.758Z,20.29
2022-08-19T07:50:16.602Z,20.46
2022-08-19T07:52:45.751Z,20.46
2022-08-19T07:55:40.201Z,20.49
2022-08-19T07:58:09.242Z,20.56
2022-08-19T08:00:37.089Z,20.19
2022-08-19T08:03:05.132Z,20.27
2022-08-19T08:06:06.289Z,20.26
2022-08-19T08:08:52.782Z,20.04
2022-08-19T08:11:23.969Z,19.95
2022-08-19T08:14:01.097Z,19.71
2022-08-19T08:16:47.269Z,19.47
2022-08-19T08:19:22.930Z,19.51
2022-08-19T08:21:57.100Z,19.49
2022-08-19T08:24:28.464Z,19.39
2022-08-19T08:26:57.961Z,19.29
2022-08-19T08:29:34.462Z,19.39
2022-08-19T08:32:14.208Z,19.36
2022-08-19T08:34:43.615Z,19.55
2022-08-19T08:37:11.201Z,19.61
2022-08-19T08:39:39.084Z,19.56
2022-08-19T08:42:18.443Z,19.73
2022-08-19T08:47:23.256Z,19.46
2022-08-19T08:50:00.505Z,19.44
2022-08-19T08:52:46.818Z,19.47
2022-08-19T08:55:21.205Z,19.55
2022-08-19T08:57:48.672Z,19.65
2022-08-19T09:00:21.996Z,19.58
2022-08-19T09:02:50.989Z,19.61
2022-08-19T09:05:22.724Z,19.61
2022-08-19T09:08:13.638Z,19.77
2022-08-19T09:10:55.218Z,19.88
2022-08-19T09:13:43.200Z,19.80
2022-08-19T09:16:21.888Z,19.78
2022-08-19T09:18:59.977Z,19.90
2022-08-19T09:21:33.119Z,19.90
2022-08-19T09:24:03.744Z,19.66
2022-08-19T09:26:47.272Z,19.86
2022-08-19T09:29:23.029Z,19.63
2022-08-19T09:31:51.054Z,19.71
2022-08-19T09:34:22.198Z,19.73
2022-08-19T09:36:54.511Z,19.73
2022-08-19T09:39:25.290Z,19.70
2022-08-19T09:42:04.670Z,19.88
2022-08-19T09:44:34.794Z,19.94
2022-08-19T09:47:02.869Z,19.94
2022-08-19T09:49:30.363Z,20.09
2022-08-19T09:51:58.981Z,20.36
2022-08-19T09:54:27.143Z,20.30
2022-08-19T09:56:55.476Z,20.48
2022-08-19T09:59:23.021Z,20.53
2022-08-19T10:01:52.460Z,20.36
2022-08-19T10:04:22.325Z,20.38
2022-08-19T10:06:53.685Z,20.42
2022-08-19T10:09:33.686Z,20.52
2022-08-19T10:12:04.508Z,20.62
2022-08-19T10:14:34.179Z,20.86
2022-08-19T10:17:04.607Z,20.98
2022-08-19T10:19:55.294Z,21.29
2022-08-19T10:22:25.524Z,21.20
2022-08-19T10:24:54.700Z,21.85
2022-08-19T10:27:22.571Z,21.73
2022-08-19T10:29:50.308Z,21.93
2022-08-19T10:32:17.826Z,21.95
2022-08-19T10:34:48.237Z,21.70
2022-08-19T10:37:23.763Z,21.39
2022-08-19T10:39:56.821Z,21.73
2022-08-19T10:42:24.387Z,22.28
2022-08-19T10:44:52.187Z,22.26
2022-08-19T10:47:25.016Z,22.43
2022-08-19T10:50:13.930Z,22.79
2022-08-19T10:52:49.924Z,22.52
2022-08-19T10:55:43.315Z,22.80
2022-08-19T10:58:15.505Z,23.51
2022-08-19T11:00:44.844Z,23.87
2022-08-19T11:03:13.018Z,23.41
2022-08-19T11:05:41.010Z,23.58
2022-08-19T11:08:17.690Z,23.64
2022-08-19T11:10:56.372Z,24.11
2022-08-19T11:13:24.450Z,24.20
2022-08-19T11:16:03.839Z,24.67
2022-08-19T11:18:49.216Z,24.92
2022-08-19T11:21:24.652Z,25.55
2022-08-19T11:23:56.545Z,25.88
2022-08-19T11:26:24.662Z,26.38
2022-08-19T11:28:55.441Z,26.27
2022-08-19T11:31:28.837Z,25.91
2022-08-19T11:33:58.516Z,25.77
2022-08-19T11:36:26.577Z,25.30
2022-08-19T11:38:54.656Z,25.55
2022-08-19T11:41:24.420Z,25.78
2022-08-19T11:43:56.254Z,25.85
2022-08-19T11:46:28.037Z,25.33
2022-08-19T11:48:55.555Z,25.58
2022-08-19T11:51:25.669Z,25.12
2022-08-19T11:53:55.572Z,25.43
2022-08-19T11:56:25.027Z,25.41
2022-08-19T11:58:53.939Z,25.08
2022-08-19T12:01:23.955Z,25.46
2022-08-19T12:03:53.192Z,25.61
2022-08-19T12:06:29.776Z,25.30
2022-08-19T12:08:59.603Z,25.81
2022-08-19T12:11:31.295Z,26.08
2022-08-19T12:14:02.419Z,25.62
2022-08-19T12:16:32.864Z,26.18
2022-08-19T12:19:04.721Z,26.27
2022-08-19T12:21:35.989Z,26.53
2022-08-19T12:24:05.411Z,26.34
2022-08-19T12:26:36.028Z,26.14
2022-08-19T12:29:23.942Z,25.95
2022-08-19T12:31:52.305Z,25.96
2022-08-19T12:34:21.176Z,25.87
2022-08-19T12:36:50.468Z,25.93
2022-08-19T12:39:18.528Z,25.04
2022-08-19T12:41:54.225Z,25.47
2022-08-19T12:44:28.827Z,25.12
2022-08-19T12:46:58.199Z,25.36
2022-08-19T12:49:52.499Z,25.21
2022-08-19T12:52:16.939Z,25.41
2022-08-19T12:54:54.619Z,25.64
2022-08-19T12:57:33.179Z,25.35
2022-08-19T13:00:13.553Z,25.33
2022-08-19T13:02:45.227Z,25.22
2022-08-19T13:05:16.916Z,25.22
2022-08-19T13:07:47.424Z,25.17
2022-08-19T13:10:18.818Z,25.08
2022-08-19T13:12:48.622Z,25.20
2022-08-19T13:15:23.693Z,25.12
2022-08-19T13:17:54.840Z,25.19
2022-08-19T13:20:38.461Z,25.70
2022-08-19T13:23:05.888Z,25.87
2022-08-19T13:25:33.435Z,25.97
2022-08-19T13:28:00.885Z,25.99
2022-08-19T13:30:47.283Z,26.45
2022-08-19T13:33:17.385Z,26.01
2022-08-19T13:35:51.242Z,26.16
2022-08-19T13:38:24.593Z,26.14
2022-08-19T13:40:54.088Z,26.26
2022-08-19T13:43:26.524Z,26.64
2022-08-19T13:45:57.267Z,26.18
2022-08-19T13:48:28.106Z,26.52
2022-08-19T13:50:55.879Z,26.45
2022-08-19T13:53:23.325Z,26.51
2022-08-19T13:55:54.690Z,26.62
2022-08-19T13:58:23.299Z,26.26
2022-08-19T14:00:50.919Z,26.81
2022-08-19T14:03:18.410Z,27.00
2022-08-19T14:05:47.009Z,26.77
2022-08-19T14:08:15.121Z,26.84
2022-08-19T14:10:45.353Z,26.66
2022-08-19T14:13:16.793Z,26.69
2022-08-19T14:15:44.997Z,26.57
2022-08-19T14:18:12.723Z,27.01
2022-08-19T14:20:43.384Z,26.76
2022-08-19T14:23:11.806Z,26.93
2022-08-19T14:25:39.336Z,26.70
2022-08-19T14:28:08.418Z,26.50
2022-08-19T14:30:38.692Z,26.45
2022-08-19T14:33:06.958Z,26.22
2022-08-19T14:35:35.647Z,26.50
2022-08-19T14:38:06.386Z,26.77
2022-08-19T14:40:36.134Z,26.52
2022-08-19T14:43:05.624Z,26.50
2022-08-19T14:45:36.995Z,26.58
2022-08-19T14:48:17.815Z,26.74
2022-08-19T14:50:47.576Z,26.40
2022-08-19T14:53:17.159Z,26.40
2022-08-19T14:55:46.796Z,26.12
2022-08-19T14:58:29.870Z,26.45
2022-08-19T15:01:00.267Z,26.61
2022-08-19T15:03:29.367Z,26.98
2022-08-19T15:05:58.681Z,27.07
2022-08-19T15:08:27.124Z,27.14
2022-08-19T15:10:55.464Z,27.15
2022-08-19T15:13:26.515Z,27.48
2022-08-19T15:15:54.609Z,27.32
2022-08-19T15:18:23.178Z,27.10
2022-08-19T15:20:53.389Z,27.43
2022-08-19T15:23:21.969Z,27.23
2022-08-19T15:25:52.991Z,26.29
2022-08-19T15:28:25.851Z,26.99
2022-08-19T15:30:53.966Z,27.05
2022-08-19T15:33:21.617Z,26.74
2022-08-19T15:35:51.589Z,26.45
2022-08-19T15:38:22.106Z,26.78
2022-08-19T15:40:50.374Z,27.07
2022-08-19T15:43:21.306Z,27.09
2022-08-19T15:45:49.502Z,27.07
2022-08-19T15:48:19.437Z,27.37
2022-08-19T15:50:46.994Z,27.45
2022-08-19T15:53:14.573Z,27.00
2022-08-19T15:55:45.696Z,26.45
2022-08-19T15:58:33.048Z,26.74
2022-08-19T16:01:24.100Z,26.66
2022-08-19T16:04:14.662Z,26.46
2022-08-19T16:06:50.594Z,26.54
2022-08-19T16:09:27.531Z,26.40
2022-08-19T16:12:06.252Z,26.48
2022-08-19T16:14:35.911Z,26.54
2022-08-19T16:17:04.461Z,26.41
2022-08-19T16:19:33.343Z,26.41
2022-08-19T16:22:01.030Z,26.43
2022-08-19T16:24:29.319Z,26.16
2022-08-19T16:27:01.685Z,26.63
2022-08-19T16:29:34.845Z,26.50
2022-08-19T16:32:10.572Z,26.82
2022-08-19T16:34:40.523Z,26.72
2022-08-19T16:37:08.427Z,26.98
2022-08-19T16:39:36.475Z,26.94
2022-08-19T16:42:07.438Z,26.92
2022-08-19T16:44:36.776Z,26.70
2022-08-19T16:47:04.857Z,27.06
2022-08-19T16:49:54.254Z,27.08
2022-08-19T16:52:28.567Z,26.88
2022-08-19T16:54:58.409Z,26.97
2022-08-19T16:57:26.015Z,26.86
2022-08-19T16:59:53.599Z,26.47
2022-08-19T17:02:23.572Z,26.49
2022-08-19T17:04:59.252Z,26.19
2022-08-19T17:07:27.940Z,26.24
2022-08-19T17:09:56.556Z,26.00
2022-08-19T17:12:31.877Z,25.61
2022-08-19T17:15:04.038Z,25.56
2022-08-19T17:17:31.937Z,25.07
2022-08-19T17:20:01.208Z,25.11
2022-08-19T17:22:29.707Z,25.00
2022-08-19T17:24:58.262Z,25.04
2022-08-19T17:27:31.413Z,25.26
2022-08-19T17:30:02.487Z,24.57
2022-08-19T17:32:34.333Z,24.49
2022-08-19T17:35:04.687Z,24.26
2022-08-19T17:37:32.766Z,23.96
2022-08-19T17:40:04.723Z,23.96
2022-08-19T17:42:32.453Z,23.95
2022-08-19T17:45:00.288Z,23.71
2022-08-19T17:47:29.439Z,23.74
2022-08-19T17:49:58.687Z,23.76
2022-08-19T17:52:26.410Z,23.79
2022-08-19T17:54:56.520Z,23.88
2022-08-19T17:57:24.463Z,24.00
2022-08-19T17:59:52.704Z,23.90
2022-08-19T18:02:21.982Z,23.77
2022-08-19T18:04:50.169Z,23.78
2022-08-19T18:07:21.712Z,23.65
2022-08-19T18:09:52.527Z,23.59
2022-08-19T18:12:26.683Z,23.40
2022-08-19T18:14:54.338Z,23.35
2022-08-19T18:17:23.619Z,22.96
2022-08-19T18:19:51.620Z,22.86
2022-08-19T18:22:37.599Z,22.93
2022-08-19T18:25:10.220Z,22.81
2022-08-19T18:27:38.049Z,22.64
2022-08-19T18:30:07.071Z,22.61
2022-08-19T18:32:38.391Z,22.32
2022-08-19T18:35:11.053Z,22.30
2022-08-19T18:37:42.098Z,22.27
2022-08-19T18:40:34.047Z,22.26
2022-08-19T18:43:19.848Z,22.49
2022-08-19T18:46:07.147Z,22.32
2022-08-19T18:48:54.693Z,22.18
2022-08-19T18:51:28.150Z,22.25
2022-08-19T18:53:58.684Z,22.25
2022-08-19T18:56:32.227Z,22.13
2022-08-19T18:59:00.433Z,22.11
2022-08-19T19:01:34.261Z,22.19
2022-08-19T19:04:07.851Z,22.20
2022-08-19T19:06:40.419Z,22.28
2022-08-19T19:09:13.853Z,22.13
2022-08-19T19:11:44.367Z,22.00
2022-08-19T19:14:27.669Z,21.84
2022-08-19T19:17:08.653Z,21.94
2022-08-19T19:19:36.365Z,22.03
2022-08-19T19:22:06.065Z,22.03
2022-08-19T19:24:33.891Z,21.88
2022-08-19T19:27:07.468Z,21.80
2022-08-19T19:29:39.331Z,21.75
2022-08-19T19:32:20.968Z,21.83
2022-08-19T19:34:49.084Z,21.87
2022-08-19T19:37:17.362Z,22.00
2022-08-19T19:39:47.543Z,21.93
2022-08-19T19:42:22.739Z,21.80
2022-08-19T19:44:55.822Z,21.71
2022-08-19T19:47:24.610Z,21.56
2022-08-19T19:52:40.897Z,21.65
2022-08-19T19:55:09.763Z,21.61
2022-08-19T19:57:39.349Z,21.74
2022-08-19T20:00:09.286Z,21.73
2022-08-19T20:02:38.089Z,21.77
2022-08-19T20:05:06.369Z,21.74
2022-08-19T20:07:52.863Z,21.83
2022-08-19T20:10:20.497Z,21.84
2022-08-19T20:12:52.029Z,21.63
2022-08-19T20:15:19.665Z,21.62
2022-08-19T20:17:47.713Z,21.49
2022-08-19T20:20:17.934Z,21.17
2022-08-19T20:22:47.541Z,20.94
2022-08-19T20:25:17.936Z,20.97
2022-08-19T20:27:53.680Z,21.14
2022-08-19T20:30:46.447Z,21.11
2022-08-19T20:33:16.416Z,21.17
2022-08-19T20:35:47.001Z,21.19
2022-08-19T20:38:17.159Z,21.17
2022-08-19T20:40:44.920Z,21.31
2022-08-19T20:43:13.979Z,21.34
2022-08-19T20:45:41.834Z,21.25
2022-08-19T20:48:12.365Z,21.12
2022-08-19T20:50:40.569Z,21.22
2022-08-19T20:53:13.664Z,21.06
2022-08-19T20:55:44.681Z,21.12
2022-08-19T20:58:14.802Z,21.18
2022-08-19T21:00:49.116Z,21.26
2022-08-19T21:03:19.945Z,21.03
2022-08-19T21:05:48.214Z,21.04
2022-08-19T21:08:18.579Z,21.06
2022-08-19T21:10:48.020Z,21.28
2022-08-19T21:13:20.038Z,21.35
2022-08-19T21:15:48.775Z,21.31
2022-08-19T21:18:22.202Z,21.24
2022-08-19T21:20:50.742Z,21.07
2022-08-19T21:23:22.051Z,21.00
2022-08-19T21:25:56.034Z,21.14
2022-08-19T21:28:34.339Z,20.93
2022-08-19T21:31:06.641Z,20.87
2022-08-19T21:33:34.255Z,20.95
2022-08-19T21:36:04.836Z,21.15
2022-08-19T21:38:33.573Z,20.92
2022-08-19T21:41:05.884Z,20.98
2022-08-19T21:43:37.988Z,20.88
2022-08-19T21:46:07.243Z,20.90
2022-08-19T21:48:38.050Z,20.85
2022-08-19T21:51:06.076Z,21.01
2022-08-19T21:53:34.419Z,20.89
2022-08-19T21:56:06.592Z,20.79
2022-08-19T21:58:36.516Z,20.80
2022-08-19T22:01:07.892Z,20.60
2022-08-19T22:03:38.138Z,20.35
2022-08-19T22:06:06.688Z,20.35
2022-08-19T22:08:34.249Z,20.51
2022-08-19T22:11:07.877Z,20.63
2022-08-19T22:13:40.576Z,20.60
2022-08-19T22:16:09.832Z,20.59
2022-08-19T22:18:37.704Z,20.52
2022-08-19T22:21:11.323Z,20.43
2022-08-19T22:23:42.075Z,20.36
2022-08-19T22:26:10.270Z,20.42
2022-08-19T22:28:38.410Z,20.39
2022-08-19T22:31:09.252Z,20.51
2022-08-19T22:33:37.495Z,20.29
2022-08-19T22:36:07.787Z,19.73
2022-08-19T22:38:36.553Z,19.89
2022-08-19T22:41:07.535Z,19.96
2022-08-19T22:43:38.691Z,19.96
2022-08-19T22:49:01.070Z,19.75
2022-08-19T22:51:51.706Z,19.84
2022-08-19T22:54:19.499Z,19.73
2022-08-19T22:56:51.979Z,19.96
2022-08-19T22:59:23.091Z,20.16
2022-08-19T23:01:53.788Z,20.13
2022-08-19T23:04:22.955Z,19.98
2022-08-19T23:06:53.081Z,19.95
2022-08-19T23:09:23.500Z,19.93
2022-08-19T23:11:53.210Z,19.79
2022-08-19T23:14:23.647Z,19.79
2022-08-19T23:16:58.374Z,19.89
2022-08-19T23:19:26.963Z,19.90
2022-08-19T23:21:54.730Z,19.90
2022-08-19T23:24:22.565Z,19.84
2022-08-19T23:27:09.045Z,19.77
2022-08-19T23:29:55.337Z,19.56
2022-08-19T23:32:29.236Z,19.33
2022-08-19T23:34:59.811Z,19.51
2022-08-19T23:37:29.662Z,19.77
2022-08-19T23:39:57.528Z,19.66
2022-08-19T23:42:25.658Z,19.76
2022-08-19T23:44:53.483Z,19.41
2022-08-19T23:47:21.946Z,19.19
2022-08-19T23:49:50.945Z,19.13
2022-08-19T23:52:20.249Z,19.07
2022-08-19T23:54:49.150Z,18.98
2022-08-19T23:57:16.886Z,19.02
2022-08-19T23:59:45.772Z,19.15
